Time;durP1;ratioP1;P1;durP2;ratioP2;P2;SDS_P1;SDS_P2;PMS_P1;PMS_P2;Temp;Humidity;BMP_temperature;BMP_pressure;BME280_temperature;BME280_humidity;BME280_pressure;Samples;Min_cycle;Max_cycle;Signal;HPM_P1;HPM_P2
2022/10/16 00:00:35;;;;;;;;;2.67;1.00;;;;;16.76;79.63;100509.56;5017547;28;45300;-56
2022/10/16 00:03:02;;;;;;;;;2.00;2.00;;;;;16.74;79.68;100506.16;5015756;28;45699;-57
2022/10/16 00:05:27;;;;;;;;;1.67;1.67;;;;;16.70;79.87;100510.94;5017219;28;45372;-56
2022/10/16 00:07:53;;;;;;;;;2.00;2.00;;;;;16.71;79.96;100517.19;5017428;28;45309;-58
2022/10/16 00:10:18;;;;;;;;;2.00;2.00;;;;;16.66;79.85;100509.44;5015665;28;45232;-55
2022/10/16 00:12:44;;;;;;;;;1.00;1.00;;;;;16.67;79.98;100515.69;5015366;28;45418;-56
2022/10/16 00:15:09;;;;;;;;;1.00;1.00;;;;;16.63;80.08;100508.84;5016779;28;45206;-59
2022/10/16 00:17:35;;;;;;;;;2.00;2.00;;;;;16.65;79.91;100509.56;5031642;28;45488;-59
2022/10/16 00:20:00;;;;;;;;;2.67;2.67;;;;;16.66;80.36;100519.34;5017200;28;45625;-58
2022/10/16 00:22:26;;;;;;;;;1.00;1.00;;;;;16.64;80.16;100534.72;5017486;28;45356;-58
2022/10/16 00:24:51;;;;;;;;;1.00;1.00;;;;;16.66;79.92;100540.81;5016620;28;45434;-58
2022/10/16 00:27:16;;;;;;;;;0.67;0.00;;;;;16.67;79.87;100531.81;5018999;28;45406;-58
2022/10/16 00:29:43;;;;;;;;;2.00;2.00;;;;;16.73;79.77;100531.31;5016520;28;45649;-56
2022/10/16 00:32:08;;;;;;;;;1.00;1.00;;;;;16.74;79.50;100533.03;5016577;28;45336;-56
2022/10/16 00:34:34;;;;;;;;;2.00;1.00;;;;;16.77;79.46;100530.06;5016568;28;45403;-58
2022/10/16 00:36:59;;;;;;;;;1.00;1.00;;;;;16.74;79.26;100527.66;5016426;28;45411;-56
2022/10/16 00:39:25;;;;;;;;;1.00;1.00;;;;;16.76;79.44;100525.69;5016441;28;45248;-58
2022/10/16 00:41:51;;;;;;;;;1.00;1.00;;;;;16.74;79.24;100539.25;5015798;28;45271;-57
2022/10/16 00:44:44;;;;;;;;;3.00;1.67;;;;;16.75;79.18;100550.84;5015454;28;45364;-57
2022/10/16 00:47:12;;;;;;;;;3.00;1.00;;;;;16.73;79.31;100545.59;5016123;28;45498;-58
2022/10/16 00:49:38;;;;;;;;;2.00;1.00;;;;;16.70;79.34;100536.97;5014256;28;45594;-58
2022/10/16 00:52:05;;;;;;;;;2.00;2.00;;;;;16.76;79.30;100549.88;5014839;28;46071;-56
2022/10/16 00:54:32;;;;;;;;;2.67;1.00;;;;;16.77;78.88;100555.09;5016387;28;45500;-56
2022/10/16 00:57:04;;;;;;;;;0.67;0.67;;;;;16.78;79.02;100546.06;5013919;28;45511;-55
2022/10/16 00:59:33;;;;;;;;;1.00;1.00;;;;;16.76;79.07;100542.66;5016919;28;45355;-58
2022/10/16 01:02:00;;;;;;;;;1.00;1.00;;;;;16.83;78.86;100539.47;5016874;28;46132;-58
2022/10/16 01:04:26;;;;;;;;;1.00;1.00;;;;;16.83;78.94;100537.66;5016182;28;45331;-58
2022/10/16 01:07:25;;;;;;;;;1.00;1.00;;;;;16.80;79.15;100538.75;5016623;28;45379;-58
2022/10/16 01:09:53;;;;;;;;;2.67;1.00;;;;;16.84;78.64;100533.97;5016563;28;45478;-57
2022/10/16 01:12:41;;;;;;;;;1.00;1.00;;;;;16.82;78.98;100544.00;5014868;28;46332;-56
2022/10/16 01:15:30;;;;;;;;;2.00;2.00;;;;;16.78;78.57;100550.59;5016627;28;45337;-57
2022/10/16 01:18:18;;;;;;;;;2.00;1.00;;;;;16.82;78.47;100565.50;5015412;28;45343;-57
2022/10/16 01:21:13;;;;;;;;;1.00;1.00;;;;;16.76;78.46;100579.41;5016215;28;45666;-58
2022/10/16 01:24:25;;;;;;;;;2.00;2.00;;;;;16.71;78.63;100570.88;5028405;28;45482;-58
2022/10/16 01:26:50;;;;;;;;;1.00;1.00;;;;;16.75;78.33;100572.31;5014765;28;45468;-57
2022/10/16 01:29:29;;;;;;;;;1.00;1.00;;;;;16.74;78.24;100559.88;5016027;28;45755;-58
2022/10/16 01:32:00;;;;;;;;;1.00;1.00;;;;;16.76;78.12;100560.59;5015617;28;45685;-58
2022/10/16 01:34:37;;;;;;;;;0.33;0.33;;;;;16.69;77.86;100559.41;5013920;28;45818;-58
2022/10/16 01:37:11;;;;;;;;;2.67;1.00;;;;;16.74;77.88;100576.84;5015275;28;45430;-58
2022/10/16 01:39:40;;;;;;;;;1.00;1.00;;;;;16.78;77.49;100580.13;4994914;28;45450;-57
2022/10/16 01:42:14;;;;;;;;;2.00;2.00;;;;;16.72;77.48;100567.22;5010525;28;45584;-57
2022/10/16 01:44:42;;;;;;;;;2.00;2.00;;;;;16.79;77.63;100576.47;5014206;28;45509;-57
2022/10/16 01:47:10;;;;;;;;;1.00;1.00;;;;;16.68;77.42;100555.03;5014177;28;45261;-56
2022/10/16 01:49:38;;;;;;;;;1.00;1.00;;;;;16.64;77.28;100527.53;5014089;28;45400;-57
2022/10/16 01:52:09;;;;;;;;;2.00;2.00;;;;;16.74;77.22;100558.06;5015911;28;45558;-57
2022/10/16 01:54:38;;;;;;;;;1.00;1.00;;;;;16.77;77.38;100556.94;5015511;28;46347;-56
2022/10/16 01:57:07;;;;;;;;;2.67;2.00;;;;;16.73;77.00;100563.56;5015119;28;45416;-58
2022/10/16 01:59:36;;;;;;;;;0.33;0.33;;;;;16.75;77.40;100566.97;5019622;28;45178;-56
2022/10/16 02:02:07;;;;;;;;;1.00;1.00;;;;;16.76;77.48;100557.91;5019635;28;45336;-56
2022/10/16 02:04:39;;;;;;;;;3.00;1.67;;;;;16.76;77.27;100552.53;5017806;28;45342;-55
2022/10/16 02:07:06;;;;;;;;;1.00;1.00;;;;;16.71;77.20;100561.00;5019309;28;45567;-57
2022/10/16 02:09:35;;;;;;;;;0.00;0.00;;;;;16.74;77.13;100570.63;5018038;28;45281;-56
2022/10/16 02:12:10;;;;;;;;;0.00;0.00;;;;;16.74;76.92;100562.56;5018074;28;45466;-57
2022/10/16 02:14:39;;;;;;;;;1.00;1.00;;;;;16.73;77.15;100566.22;5016757;28;48273;-55
2022/10/16 02:17:16;;;;;;;;;0.33;0.33;;;;;16.69;76.97;100554.91;5034166;28;45733;-55
2022/10/16 02:19:44;;;;;;;;;2.00;1.00;;;;;16.69;77.07;100570.16;5017343;28;45411;-58
2022/10/16 02:22:18;;;;;;;;;0.00;0.00;;;;;16.70;77.07;100575.41;5018663;28;45221;-56
2022/10/16 02:24:54;;;;;;;;;0.00;0.00;;;;;16.71;76.88;100568.19;5017479;28;45587;-56
2022/10/16 02:27:27;;;;;;;;;0.67;0.67;;;;;16.73;76.82;100575.16;5019006;28;45264;-56
2022/10/16 02:29:59;;;;;;;;;0.50;0.50;;;;;16.71;76.67;100573.56;5018555;28;45549;-57
2022/10/16 02:32:30;;;;;;;;;0.00;0.00;;;;;16.71;76.59;100555.63;5018389;28;45846;-57
2022/10/16 02:34:57;;;;;;;;;2.00;0.33;;;;;16.72;76.38;100568.06;5018316;28;45480;-61
2022/10/16 02:37:24;;;;;;;;;1.00;1.00;;;;;16.73;76.30;100571.59;5018635;28;45403;-56
2022/10/16 02:39:50;;;;;;;;;0.00;0.00;;;;;16.72;75.99;100561.84;5017398;28;45558;-55
2022/10/16 02:42:18;;;;;;;;;1.33;1.33;;;;;16.68;76.17;100555.88;5018750;28;45281;-56
2022/10/16 02:44:43;;;;;;;;;1.00;1.00;;;;;16.73;76.04;100571.59;5015873;28;45424;-56
2022/10/16 02:47:09;;;;;;;;;1.33;0.00;;;;;16.72;75.83;100561.84;5033313;28;45488;-58
2022/10/16 02:49:34;;;;;;;;;0.67;0.67;;;;;16.72;75.76;100569.91;5018726;28;45457;-58
2022/10/16 02:52:00;;;;;;;;;2.00;0.00;;;;;16.71;75.70;100573.56;5017973;28;45598;-58
2022/10/16 02:54:25;;;;;;;;;0.00;0.00;;;;;16.71;75.93;100582.47;5018439;28;45936;-58
2022/10/16 02:56:51;;;;;;;;;1.00;0.00;;;;;16.70;75.37;100585.28;5018626;28;45470;-57
2022/10/16 02:59:17;;;;;;;;;0.00;0.00;;;;;16.70;75.26;100590.66;5033360;28;45358;-57
2022/10/16 03:01:42;;;;;;;;;0.33;0.33;;;;;16.70;75.50;100596.03;5018264;28;45359;-57
2022/10/16 03:04:08;;;;;;;;;0.00;0.00;;;;;16.70;74.94;100604.09;5018006;28;46311;-56
2022/10/16 03:06:34;;;;;;;;;1.00;1.00;;;;;16.66;75.05;100599.91;5017305;28;45474;-58
2022/10/16 03:08:59;;;;;;;;;1.33;0.67;;;;;16.62;74.49;100593.06;5017970;28;45434;-57
2022/10/16 03:11:26;;;;;;;;;0.00;0.00;;;;;16.63;74.96;100592.09;5017972;28;45414;-60
2022/10/16 03:13:51;;;;;;;;;0.00;0.00;;;;;16.64;74.70;100597.34;5017779;28;45268;-57
2022/10/16 03:16:17;;;;;;;;;0.33;0.33;;;;;16.69;74.23;100605.06;5018045;28;45914;-55
2022/10/16 03:18:42;;;;;;;;;0.00;0.00;;;;;16.64;74.41;100591.97;5018398;28;45296;-56
2022/10/16 03:21:08;;;;;;;;;0.00;0.00;;;;;16.66;74.32;100589.16;5017962;28;45296;-56
2022/10/16 03:23:33;;;;;;;;;0.67;0.33;;;;;16.63;73.71;100590.25;5018251;28;45455;-58
2022/10/16 03:25:58;;;;;;;;;0.33;0.33;;;;;16.66;73.76;100599.91;5016382;28;45448;-56
2022/10/16 03:28:24;;;;;;;;;0.00;0.00;;;;;16.63;74.14;100594.78;5017672;28;45366;-55
2022/10/16 03:30:49;;;;;;;;;1.00;1.00;;;;;16.61;74.12;100588.69;5017066;28;45315;-56
2022/10/16 03:33:15;;;;;;;;;0.67;0.67;;;;;16.60;73.82;100573.56;5017753;28;46208;-57
2022/10/16 03:35:40;;;;;;;;;0.00;0.00;;;;;16.55;74.14;100559.66;5016547;28;45579;-57
2022/10/16 03:38:06;;;;;;;;;0.00;0.00;;;;;16.43;74.25;100557.00;5012676;28;45606;-61
2022/10/16 03:40:34;;;;;;;;;0.67;0.00;;;;;16.49;74.28;100563.69;4998207;28;45805;-58
2022/10/16 03:42:59;;;;;;;;;1.00;1.00;;;;;16.50;74.33;100576.97;4997936;28;46971;-57
2022/10/16 03:45:25;;;;;;;;;0.00;0.00;;;;;16.48;74.20;100559.28;5012859;28;45446;-56
2022/10/16 03:47:50;;;;;;;;;2.00;0.33;;;;;16.46;74.42;100577.34;4997982;28;45285;-58
2022/10/16 03:50:16;;;;;;;;;1.00;1.00;;;;;16.45;74.28;100603.34;4997993;28;45618;-57
2022/10/16 03:52:41;;;;;;;;;0.67;0.67;;;;;16.43;74.19;100605.31;5031261;28;47702;-57
2022/10/16 03:55:07;;;;;;;;;2.33;0.00;;;;;16.41;74.37;100591.16;5016176;28;45213;-57
2022/10/16 03:57:32;;;;;;;;;0.00;0.00;;;;;16.39;74.32;100585.03;5017456;28;45371;-56
2022/10/16 03:59:58;;;;;;;;;0.00;0.00;;;;;16.40;74.33;100600.16;5017516;28;45552;-58
2022/10/16 04:02:23;;;;;;;;;0.00;0.00;;;;;16.42;74.24;100598.22;5016125;28;46319;-57
2022/10/16 04:04:48;;;;;;;;;3.00;0.00;;;;;16.46;74.39;100594.31;5017298;28;45347;-57
2022/10/16 04:07:14;;;;;;;;;1.00;0.00;;;;;16.46;74.35;100570.16;5017553;28;45364;-61
2022/10/16 04:09:39;;;;;;;;;0.00;0.00;;;;;16.41;74.31;100583.13;5017416;28;45534;-56
2022/10/16 04:12:05;;;;;;;;;0.00;0.00;;;;;16.36;74.47;100582.59;5017183;28;45380;-55
2022/10/16 04:14:31;;;;;;;;;0.00;0.00;;;;;16.38;74.60;100594.06;5017252;28;45470;-57
2022/10/16 04:16:56;;;;;;;;;0.00;0.00;;;;;16.36;74.64;100605.91;5015504;28;45537;-57
2022/10/16 04:19:21;;;;;;;;;1.00;0.00;;;;;16.28;74.86;100601.19;5016600;28;45628;-57
2022/10/16 04:21:47;;;;;;;;;0.00;0.00;;;;;16.32;74.87;100605.31;5017178;28;45539;-57
2022/10/16 04:24:12;;;;;;;;;2.00;0.00;;;;;16.30;74.98;100603.72;5016934;28;45446;-59
2022/10/16 04:26:38;;;;;;;;;0.00;0.00;;;;;16.34;75.01;100600.66;5016187;28;45590;-57
2022/10/16 04:29:03;;;;;;;;;0.00;0.00;;;;;16.39;74.93;100611.88;5016902;28;45653;-57
2022/10/16 04:31:28;;;;;;;;;0.00;0.00;;;;;16.38;74.83;100618.22;5016792;28;46157;-56
2022/10/16 04:33:54;;;;;;;;;0.00;0.00;;;;;16.35;74.77;100613.09;5016501;28;52177;-58
2022/10/16 04:36:19;;;;;;;;;0.00;0.00;;;;;16.43;75.00;100632.16;5032132;28;45486;-58
2022/10/16 04:38:44;;;;;;;;;1.00;1.00;;;;;16.40;74.47;100626.16;5017001;28;45414;-57
2022/10/16 04:41:10;;;;;;;;;1.00;0.00;;;;;16.44;74.88;100639.22;5015580;28;45442;-59
2022/10/16 04:43:35;;;;;;;;;0.00;0.00;;;;;16.46;74.86;100653.38;5016478;28;45361;-58
2022/10/16 04:46:01;;;;;;;;;0.00;0.00;;;;;16.48;74.61;100646.06;5016329;28;45252;-58
2022/10/16 04:48:27;;;;;;;;;0.00;0.00;;;;;16.50;74.79;100653.97;5032256;28;45310;-57
2022/10/16 04:50:52;;;;;;;;;1.00;0.00;;;;;16.52;74.73;100660.94;5015887;28;45357;-57
2022/10/16 04:53:17;;;;;;;;;0.00;0.00;;;;;16.48;74.63;100654.09;5015168;28;45503;-56
2022/10/16 04:55:43;;;;;;;;;0.00;0.00;;;;;16.47;74.81;100657.75;5016656;28;45370;-57
2022/10/16 04:58:09;;;;;;;;;0.67;0.00;;;;;16.51;74.88;100661.06;5016434;28;45621;-59
2022/10/16 05:00:35;;;;;;;;;0.67;0.00;;;;;16.52;74.77;100668.13;5031553;28;46425;-56
2022/10/16 05:03:01;;;;;;;;;0.00;0.00;;;;;16.51;74.78;100674.47;5015985;28;45387;-57
2022/10/16 05:05:27;;;;;;;;;0.00;0.00;;;;;16.50;74.77;100665.56;5015071;28;45345;-57
2022/10/16 05:07:53;;;;;;;;;0.00;0.00;;;;;16.49;74.97;100679.97;5016568;28;45414;-57
2022/10/16 05:10:19;;;;;;;;;0.00;0.00;;;;;16.50;75.03;100679.00;5016258;28;45446;-56
2022/10/16 05:12:46;;;;;;;;;0.00;0.00;;;;;16.49;74.91;100679.97;5016369;28;45437;-57
2022/10/16 05:15:11;;;;;;;;;0.00;0.00;;;;;16.52;75.03;100674.34;5016540;28;45560;-57
2022/10/16 05:17:37;;;;;;;;;0.67;0.00;;;;;16.50;75.06;100680.81;5013875;28;45553;-56
2022/10/16 05:20:03;;;;;;;;;2.00;0.00;;;;;16.50;74.92;100686.19;5015960;28;45238;-58
2022/10/16 05:22:28;;;;;;;;;0.00;0.00;;;;;16.31;74.71;100670.69;5014917;28;45215;-56
2022/10/16 05:24:53;;;;;;;;;0.00;0.00;;;;;16.45;74.51;100693.75;5014948;28;45436;-56
2022/10/16 05:27:19;;;;;;;;;0.00;0.00;;;;;16.53;74.46;100713.66;5015057;28;45694;-58
2022/10/16 05:29:46;;;;;;;;;1.00;0.00;;;;;16.58;74.55;100715.13;5015867;28;46028;-56
2022/10/16 05:32:12;;;;;;;;;0.00;0.00;;;;;16.61;74.50;100725.63;5019196;28;45364;-56
2022/10/16 05:34:38;;;;;;;;;1.00;0.00;;;;;16.61;74.09;100709.50;5019589;28;45407;-57
2022/10/16 05:37:03;;;;;;;;;0.00;0.00;;;;;16.64;74.40;100712.78;5018949;28;45522;-57
2022/10/16 05:39:29;;;;;;;;;0.00;0.00;;;;;16.67;74.43;100706.34;5018891;28;45824;-55
2022/10/16 05:41:54;;;;;;;;;0.00;0.00;;;;;16.63;73.86;100707.56;5018134;28;46053;-56
2022/10/16 05:44:20;;;;;;;;;0.33;0.00;;;;;16.57;73.96;100697.31;5018790;28;45744;-56
2022/10/16 05:46:46;;;;;;;;;0.00;0.00;;;;;16.57;74.04;100700.84;5019825;28;45497;-55
2022/10/16 05:49:12;;;;;;;;;0.00;0.00;;;;;16.58;74.27;100697.19;5018261;28;46318;-54
2022/10/16 05:51:37;;;;;;;;;1.00;0.00;;;;;16.58;73.97;100709.75;5019268;28;45347;-56
2022/10/16 05:54:03;;;;;;;;;0.00;0.00;;;;;16.56;73.89;100706.34;5019307;28;45358;-57
2022/10/16 05:56:28;;;;;;;;;0.00;0.00;;;;;16.43;74.14;100695.72;5019951;28;45361;-57
2022/10/16 05:58:54;;;;;;;;;1.00;1.00;;;;;16.44;74.23;100703.66;5019051;28;46508;-57
2022/10/16 06:01:20;;;;;;;;;0.00;0.00;;;;;16.49;74.55;100720.25;5019328;28;49243;-57
2022/10/16 06:03:46;;;;;;;;;0.00;0.00;;;;;16.50;74.52;100716.56;5021508;28;45270;-57
2022/10/16 06:06:17;;;;;;;;;0.00;0.00;;;;;16.48;74.56;100715.00;5018315;28;45621;-58
2022/10/16 06:08:45;;;;;;;;;0.00;0.00;;;;;16.47;74.72;100715.97;5034566;28;48147;-59
2022/10/16 06:11:13;;;;;;;;;2.00;0.00;;;;;16.42;74.96;100721.72;5016269;28;45382;-57
2022/10/16 06:13:42;;;;;;;;;0.00;0.00;;;;;16.26;75.06;100697.03;4999019;28;45475;-56
2022/10/16 06:16:08;;;;;;;;;0.00;0.00;;;;;16.37;75.06;100718.50;5006409;28;45739;-58
2022/10/16 06:18:33;;;;;;;;;0.00;0.00;;;;;16.28;75.27;100705.84;5018813;28;45403;-57
2022/10/16 06:20:59;;;;;;;;;0.00;0.00;;;;;16.33;75.36;100719.75;5018832;28;45308;-57
2022/10/16 06:23:25;;;;;;;;;0.00;0.00;;;;;16.30;75.50;100716.44;5018959;28;45334;-57
2022/10/16 06:25:50;;;;;;;;;0.67;0.67;;;;;16.30;75.56;100721.81;5017570;28;45230;-58
2022/10/16 06:28:16;;;;;;;;;0.00;0.00;;;;;16.28;75.76;100719.25;5030600;28;46033;-58
2022/10/16 06:30:43;;;;;;;;;0.00;0.00;;;;;16.28;75.75;100713.88;5035386;28;45364;-57
2022/10/16 06:33:10;;;;;;;;;0.67;0.33;;;;;16.31;75.79;100713.63;5025006;28;45610;-58
2022/10/16 06:35:35;;;;;;;;;0.00;0.00;;;;;16.28;75.57;100708.53;5018810;28;45460;-58
2022/10/16 06:38:00;;;;;;;;;0.00;0.00;;;;;16.28;75.73;100723.78;5018250;28;46183;-58
2022/10/16 06:40:26;;;;;;;;;0.00;0.00;;;;;16.16;75.85;100710.31;5024193;28;45486;-58
2022/10/16 06:42:55;;;;;;;;;1.00;1.00;;;;;16.20;76.00;100721.66;5018011;28;45214;-58
2022/10/16 06:45:20;;;;;;;;;0.00;0.00;;;;;16.16;76.54;100733.63;5014109;28;45468;-59
2022/10/16 06:47:45;;;;;;;;;0.00;0.00;;;;;16.14;76.51;100727.50;5017213;28;46231;-58
2022/10/16 06:50:11;;;;;;;;;0.00;0.00;;;;;16.11;76.62;100733.94;5017813;28;45914;-58
2022/10/16 06:52:36;;;;;;;;;0.33;0.33;;;;;16.11;76.61;100733.94;5016509;28;45469;-57
2022/10/16 06:55:02;;;;;;;;;0.00;0.00;;;;;16.13;76.63;100733.84;5018339;28;45542;-59
2022/10/16 06:57:28;;;;;;;;;0.00;0.00;;;;;16.14;76.58;100738.22;5018404;28;45438;-59
2022/10/16 06:59:54;;;;;;;;;0.33;0.33;;;;;16.18;76.76;100753.13;5015520;28;45342;-59
2022/10/16 07:02:19;;;;;;;;;1.00;1.00;;;;;16.24;76.38;100749.97;5008834;28;45260;-60
2022/10/16 07:04:45;;;;;;;;;2.33;1.00;;;;;16.29;76.19;100755.84;5018677;28;45627;-57
2022/10/16 07:07:10;;;;;;;;;1.00;1.00;;;;;16.31;76.15;100745.84;5015989;28;45456;-59
2022/10/16 07:09:36;;;;;;;;;0.67;0.67;;;;;16.38;75.98;100756.94;5033413;28;45336;-56
2022/10/16 07:12:01;;;;;;;;;0.00;0.00;;;;;16.43;75.64;100761.00;5017249;28;45407;-58
2022/10/16 07:14:27;;;;;;;;;1.00;1.00;;;;;16.46;75.38;100770.63;5018443;28;45478;-58
2022/10/16 07:16:52;;;;;;;;;0.00;0.00;;;;;16.45;75.18;100771.63;5018777;28;46197;-57
2022/10/16 07:19:18;;;;;;;;;0.00;0.00;;;;;16.41;74.84;100765.63;5014798;28;45325;-59
2022/10/16 07:21:44;;;;;;;;;2.00;0.00;;;;;16.48;74.78;100779.44;5007882;28;45229;-60
2022/10/16 07:24:15;;;;;;;;;1.00;1.00;;;;;16.46;74.92;100784.91;5018202;28;45594;-62
2022/10/16 07:26:42;;;;;;;;;0.00;0.00;;;;;16.48;74.88;100795.53;5017605;28;47139;-60
2022/10/16 07:29:16;;;;;;;;;0.67;0.33;;;;;16.49;74.41;100781.13;5018096;28;45348;-61
2022/10/16 07:31:43;;;;;;;;;0.00;0.00;;;;;16.52;73.90;100778.19;5016245;28;45244;-59
2022/10/16 07:34:09;;;;;;;;;0.00;0.00;;;;;16.49;74.12;100776.63;5014122;28;45607;-56
2022/10/16 07:36:35;;;;;;;;;0.00;0.00;;;;;16.59;74.05;100781.28;5014367;28;45671;-61
2022/10/16 07:39:00;;;;;;;;;2.67;0.33;;;;;16.64;73.92;100796.03;5013660;28;45415;-63
2022/10/16 07:41:27;;;;;;;;;2.00;1.00;;;;;16.71;73.85;100793.78;5018059;28;45417;-63
2022/10/16 07:43:53;;;;;;;;;1.00;0.00;;;;;16.76;73.65;100799.63;5016397;28;45502;-61
2022/10/16 07:46:21;;;;;;;;;1.00;1.00;;;;;16.84;73.42;100805.25;5033620;28;46376;-60
2022/10/16 07:48:46;;;;;;;;;1.00;1.00;;;;;16.90;73.51;100812.81;5035540;28;45458;-63
2022/10/16 07:51:13;;;;;;;;;0.00;0.00;;;;;16.95;73.19;100821.41;5014762;28;45490;-58
2022/10/16 07:53:39;;;;;;;;;1.00;1.00;;;;;16.95;72.80;100818.72;5017325;28;45296;-59
2022/10/16 07:56:06;;;;;;;;;0.67;0.67;;;;;17.04;72.91;100820.66;5016614;28;45569;-58
2022/10/16 07:58:33;;;;;;;;;1.00;1.00;;;;;17.10;72.06;100812.13;5017278;28;45392;-60
2022/10/16 08:01:02;;;;;;;;;2.00;1.00;;;;;17.04;71.74;100807.22;5016841;28;45395;-60
2022/10/16 08:03:27;;;;;;;;;2.00;1.00;;;;;17.19;72.77;100818.59;5017589;28;45500;-59
2022/10/16 08:05:53;;;;;;;;;0.00;0.00;;;;;17.25;71.53;100828.00;5016554;28;46250;-60
2022/10/16 08:08:19;;;;;;;;;0.67;0.67;;;;;17.26;71.32;100833.25;5016326;28;45225;-58
2022/10/16 08:10:44;;;;;;;;;0.00;0.00;;;;;17.30;71.45;100837.38;5031774;28;45247;-61
2022/10/16 08:13:10;;;;;;;;;0.00;0.00;;;;;17.36;71.51;100836.91;5037206;28;45402;-63
2022/10/16 08:15:36;;;;;;;;;3.00;2.00;;;;;17.45;71.55;100838.00;5023654;28;46001;-68
2022/10/16 08:18:03;;;;;;;;;3.33;2.00;;;;;17.50;71.59;100843.00;5023299;28;45478;-65
2022/10/16 08:20:30;;;;;;;;;2.00;2.00;;;;;17.48;71.95;100831.53;5015395;28;45586;-61
2022/10/16 08:22:59;;;;;;;;;5.33;2.67;;;;;17.58;72.04;100852.16;5016738;28;45403;-66
2022/10/16 08:25:25;;;;;;;;;1.33;0.67;;;;;17.63;72.14;100839.19;5016206;28;45463;-65
2022/10/16 08:27:51;;;;;;;;;4.00;3.00;;;;;17.67;72.15;100823.66;5019720;28;45387;-66
2022/10/16 08:30:18;;;;;;;;;3.00;3.00;;;;;17.67;72.20;100813.75;5016090;28;45690;-67
2022/10/16 08:32:43;;;;;;;;;3.33;3.33;;;;;17.73;71.92;100815.13;5018612;28;45268;-65
2022/10/16 08:35:10;;;;;;;;;2.67;2.67;;;;;17.75;71.40;100815.00;5018080;28;45891;-66
2022/10/16 08:37:36;;;;;;;;;4.00;4.00;;;;;17.81;72.02;100830.59;5020461;28;45340;-64
2022/10/16 08:40:03;;;;;;;;;5.67;5.00;;;;;17.81;71.69;100825.22;5015789;28;45355;-64
2022/10/16 08:42:53;;;;;;;;;5.00;5.00;;;;;17.86;71.61;100836.50;5000445;28;45612;-64
2022/10/16 08:45:34;;;;;;;;;7.00;4.00;;;;;17.95;71.10;100833.00;5023479;28;47560;-64
2022/10/16 08:48:23;;;;;;;;;4.00;4.00;;;;;18.04;71.34;100840.31;5017754;28;45402;-64
2022/10/16 08:50:51;;;;;;;;;5.00;5.00;;;;;18.10;71.33;100842.53;5015590;28;45485;-64
2022/10/16 08:53:25;;;;;;;;;6.00;5.00;;;;;18.13;71.16;100836.88;5016479;28;45426;-65
2022/10/16 08:55:52;;;;;;;;;5.67;4.00;;;;;18.18;70.38;100842.72;5013892;28;46610;-66
2022/10/16 08:58:21;;;;;;;;;5.00;4.00;;;;;18.14;70.20;100843.13;5013555;28;45552;-65
2022/10/16 09:00:50;;;;;;;;;4.33;4.33;;;;;18.05;71.01;100849.25;5015588;28;45637;-65
2022/10/16 09:03:46;;;;;;;;;7.00;7.00;;;;;18.01;71.82;100851.34;5007290;28;45999;-63
2022/10/16 09:06:30;;;;;;;;;3.00;3.00;;;;;17.98;71.63;100854.31;5012807;28;45474;-62
2022/10/16 09:09:09;;;;;;;;;5.00;5.00;;;;;17.97;71.90;100852.59;5015542;28;45581;-64
2022/10/16 09:11:53;;;;;;;;;6.00;6.00;;;;;18.02;71.66;100861.13;5027190;28;45549;-65
2022/10/16 09:14:36;;;;;;;;;3.67;3.67;;;;;18.08;70.87;100859.75;5014060;28;45479;-64
2022/10/16 09:17:29;;;;;;;;;6.00;3.33;;;;;18.06;70.24;100853.66;5014178;28;45305;-66
2022/10/16 09:20:17;;;;;;;;;2.67;2.67;;;;;18.14;70.74;100849.34;5012172;28;46165;-56
2022/10/16 09:22:43;;;;;;;;;4.00;4.00;;;;;18.17;70.44;100842.84;5011470;28;45407;-59
2022/10/16 09:25:17;;;;;;;;;5.00;5.00;;;;;18.23;70.44;100836.97;5028854;28;45702;-59
2022/10/16 09:27:46;;;;;;;;;3.33;3.33;;;;;18.26;70.28;100826.78;5015624;28;45334;-59
2022/10/16 09:30:18;;;;;;;;;7.33;5.67;;;;;18.34;70.58;100844.13;5014366;28;45540;-56
2022/10/16 09:32:46;;;;;;;;;7.67;7.67;;;;;18.41;70.04;100848.00;5011875;28;45442;-55
2022/10/16 09:35:16;;;;;;;;;13.00;9.33;;;;;18.52;70.17;100858.72;5011062;28;46035;-55
2022/10/16 09:37:48;;;;;;;;;7.00;6.00;;;;;18.59;69.51;100854.50;5011280;28;47010;-57
2022/10/16 09:40:38;;;;;;;;;6.33;6.00;;;;;18.63;69.46;100850.59;5014636;28;45415;-57
2022/10/16 09:43:27;;;;;;;;;7.67;6.67;;;;;18.77;69.16;100852.97;5012819;28;45631;-57
2022/10/16 09:46:16;;;;;;;;;8.33;7.00;;;;;18.83;68.46;100863.22;5012609;28;45508;-58
2022/10/16 09:48:48;;;;;;;;;8.00;7.00;;;;;18.84;68.73;100867.63;4998924;28;45519;-60
2022/10/16 09:51:39;;;;;;;;;11.00;6.00;;;;;18.87;68.12;100869.19;5012436;28;45545;-59
2022/10/16 09:54:07;;;;;;;;;4.67;4.67;;;;;18.98;67.82;100860.19;5005787;28;45796;-58
2022/10/16 09:56:36;;;;;;;;;7.00;7.00;;;;;19.02;67.45;100858.94;5007016;28;45489;-59
2022/10/16 09:59:16;;;;;;;;;5.00;4.00;;;;;19.04;66.84;100848.88;5013653;28;46392;-60
2022/10/16 10:01:50;;;;;;;;;6.00;6.00;;;;;19.05;67.29;100853.28;5013837;28;45436;-58
2022/10/16 10:04:20;;;;;;;;;6.00;6.00;;;;;19.05;67.04;100851.44;5028855;27;45284;-58
2022/10/16 10:06:52;;;;;;;;;6.33;5.00;;;;;19.04;66.22;100841.66;5015528;28;45631;-59
2022/10/16 10:09:45;;;;;;;;;5.33;5.33;;;;;19.04;66.43;100838.94;5013849;28;46143;-59
2022/10/16 10:12:28;;;;;;;;;4.67;4.00;;;;;19.13;66.42;100838.13;5025085;28;45583;-60
2022/10/16 10:15:03;;;;;;;;;6.00;6.00;;;;;19.17;66.71;100835.19;5015201;28;45253;-59
2022/10/16 10:17:30;;;;;;;;;4.00;4.00;;;;;19.04;66.28;100805.75;5006067;28;45297;-57
2022/10/16 10:20:11;;;;;;;;;5.00;5.00;;;;;19.26;65.78;100826.25;5021367;28;45603;-58
2022/10/16 10:22:36;;;;;;;;;4.00;4.00;;;;;19.35;64.95;100831.69;5015573;28;45601;-60
2022/10/16 10:25:08;;;;;;;;;3.00;3.00;;;;;19.41;65.15;100828.47;5017901;28;45423;-59
2022/10/16 10:28:10;;;;;;;;;6.33;3.67;;;;;19.37;64.68;100829.69;5012912;28;45510;-61
2022/10/16 10:30:55;;;;;;;;;3.67;3.67;;;;;19.47;64.65;100834.28;5013607;28;45435;-56
2022/10/16 10:33:48;;;;;;;;;3.67;3.00;;;;;19.57;63.61;100836.06;5017376;28;45441;-57
2022/10/16 10:36:27;;;;;;;;;4.00;4.00;;;;;19.63;63.87;100829.25;5016180;28;45441;-57
2022/10/16 10:39:06;;;;;;;;;12.67;10.00;;;;;19.69;63.79;100818.75;5016342;28;45422;-61
2022/10/16 10:41:50;;;;;;;;;5.00;4.00;;;;;19.76;62.67;100829.00;5017163;28;45337;-57
2022/10/16 10:44:37;;;;;;;;;4.00;4.00;;;;;19.75;62.49;100825.44;5017360;28;45461;-59
2022/10/16 10:47:26;;;;;;;;;9.67;8.00;;;;;19.74;61.67;100834.53;5025485;28;45869;-57
2022/10/16 10:50:07;;;;;;;;;1.00;1.00;;;;;19.74;61.61;100831.81;5038445;28;45366;-58
2022/10/16 10:52:38;;;;;;;;;2.50;2.50;;;;;19.84;62.17;100832.72;5026705;28;45998;-57
2022/10/16 10:55:42;;;;;;;;;3.00;3.00;;;;;19.87;62.93;100824.31;5018321;28;46185;-58
2022/10/16 10:58:10;;;;;;;;;3.75;2.25;;;;;19.87;62.50;100818.91;5018412;28;45344;-57
2022/10/16 11:00:50;;;;;;;;;3.00;3.00;;;;;19.89;62.92;100808.84;5013066;28;45455;-55
2022/10/16 11:03:35;;;;;;;;;2.75;2.75;;;;;19.96;62.97;100804.59;4997801;28;45459;-56
2022/10/16 11:06:06;;;;;;;;;5.00;5.00;;;;;19.92;63.11;100803.19;4999151;28;45339;-56
2022/10/16 11:08:48;;;;;;;;;3.67;3.00;;;;;19.92;63.99;100803.19;4998563;28;45387;-55
2022/10/16 11:11:20;;;;;;;;;1.00;1.00;;;;;19.97;62.99;100803.59;4998480;28;45440;-57
2022/10/16 11:14:10;;;;;;;;;1.00;1.00;;;;;19.90;63.53;100805.13;4997902;28;45670;-58
2022/10/16 11:16:48;;;;;;;;;3.00;1.25;;;;;19.94;64.15;100805.72;5019218;28;45545;-58
2022/10/16 11:19:32;;;;;;;;;1.50;1.50;;;;;20.02;64.52;100814.81;5021410;28;45341;-58
2022/10/16 11:22:07;;;;;;;;;2.00;2.00;;;;;20.05;64.15;100808.28;5018273;28;45198;-58
2022/10/16 11:24:32;;;;;;;;;1.50;1.50;;;;;20.10;64.33;100806.00;5017021;28;45277;-56
2022/10/16 11:27:09;;;;;;;;;2.75;2.75;;;;;20.15;63.98;100798.31;5018332;28;45249;-60
2022/10/16 11:29:40;;;;;;;;;1.00;1.00;;;;;20.19;64.01;100810.56;5017462;28;45514;-57
2022/10/16 11:32:44;;;;;;;;;2.00;2.00;;;;;20.23;64.58;100800.31;5016774;28;45392;-58
2022/10/16 11:35:32;;;;;;;;;1.00;1.00;;;;;20.31;63.98;100808.53;5014923;28;48697;-60
2022/10/16 11:37:59;;;;;;;;;2.50;2.50;;;;;20.30;64.29;100802.28;5017310;28;45356;-58